sensor_id;sensor_type;location;lat;lon;timestamp;pressure;altitude;pressure_sealevel;temperature;humidity
32324;BME280;25666;44.350;9.222;2023-01-26T00:01:42;101677.81;;;4.88;100.00
32324;BME280;25666;44.350;9.222;2023-01-26T00:04:09;101671.66;;;4.96;100.00
32324;BME280;25666;44.350;9.222;2023-01-26T00:06:34;101672.69;;;5.05;100.00
32324;BME280;25666;44.350;9.222;2023-01-26T00:09:00;101660.59;;;5.01;100.00
32324;BME280;25666;44.350;9.222;2023-01-26T00:11:26;101662.53;;;5.00;100.00
32324;BME280;25666;44.350;9.222;2023-01-26T00:13:54;101658.38;;;5.03;100.00
32324;BME280;25666;44.350;9.222;2023-01-26T00:16:20;101646.72;;;5.77;100.00
32324;BME280;25666;44.350;9.222;2023-01-26T00:18:45;101643.28;;;5.90;100.00
32324;BME280;25666;44.350;9.222;2023-01-26T00:21:14;101634.03;;;6.18;100.00
32324;BME280;25666;44.350;9.222;2023-01-26T00:23:40;101627.84;;;6.59;100.00
32324;BME280;25666;44.350;9.222;2023-01-26T00:26:06;101623.69;;;7.07;100.00
32324;BME280;25666;44.350;9.222;2023-01-26T00:28:32;101624.13;;;7.41;100.00
32324;BME280;25666;44.350;9.222;2023-01-26T00:31:26;101620.09;;;7.61;100.00
32324;BME280;25666;44.350;9.222;2023-01-26T00:33:53;101612.72;;;7.70;100.00
32324;BME280;25666;44.350;9.222;2023-01-26T00:36:18;101610.97;;;7.20;100.00
32324;BME280;25666;44.350;9.222;2023-01-26T00:38:44;101613.28;;;6.85;100.00
32324;BME280;25666;44.350;9.222;2023-01-26T00:41:10;101605.78;;;6.72;100.00
32324;BME280;25666;44.350;9.222;2023-01-26T00:43:55;101604.88;;;6.44;100.00
32324;BME280;25666;44.350;9.222;2023-01-26T00:46:21;101600.91;;;6.51;100.00
32324;BME280;25666;44.350;9.222;2023-01-26T00:48:46;101601.59;;;5.86;100.00
32324;BME280;25666;44.350;9.222;2023-01-26T00:51:12;101593.81;;;5.70;100.00
32324;BME280;25666;44.350;9.222;2023-01-26T00:53:37;101592.09;;;5.74;100.00
32324;BME280;25666;44.350;9.222;2023-01-26T00:56:03;101601.59;;;5.86;100.00
32324;BME280;25666;44.350;9.222;2023-01-26T00:58:31;101597.13;;;5.90;100.00
32324;BME280;25666;44.350;9.222;2023-01-26T01:00:57;101587.66;;;5.97;100.00
32324;BME280;25666;44.350;9.222;2023-01-26T01:03:22;101592.13;;;5.92;100.00
32324;BME280;25666;44.350;9.222;2023-01-26T01:05:48;101586.91;;;5.91;100.00
32324;BME280;25666;44.350;9.222;2023-01-26T01:08:13;101587.50;;;5.88;100.00
32324;BME280;25666;44.350;9.222;2023-01-26T01:10:39;101583.59;;;5.89;100.00
32324;BME280;25666;44.350;9.222;2023-01-26T01:13:04;101584.38;;;5.95;100.00
32324;BME280;25666;44.350;9.222;2023-01-26T01:15:29;101579.34;;;6.15;100.00
32324;BME280;25666;44.350;9.222;2023-01-26T01:17:55;101580.09;;;6.53;100.00
32324;BME280;25666;44.350;9.222;2023-01-26T01:20:20;101577.81;;;6.41;100.00
32324;BME280;25666;44.350;9.222;2023-01-26T01:22:46;101574.50;;;6.26;100.00
32324;BME280;25666;44.350;9.222;2023-01-26T01:25:12;101577.03;;;6.04;100.00
32324;BME280;25666;44.350;9.222;2023-01-26T01:27:37;101578.63;;;6.10;100.00
32324;BME280;25666;44.350;9.222;2023-01-26T01:30:04;101562.03;;;6.10;100.00
32324;BME280;25666;44.350;9.222;2023-01-26T01:32:34;101571.16;;;6.10;100.00
32324;BME280;25666;44.350;9.222;2023-01-26T01:35:00;101569.03;;;6.21;100.00
32324;BME280;25666;44.350;9.222;2023-01-26T01:37:27;101559.78;;;5.93;100.00
32324;BME280;25666;44.350;9.222;2023-01-26T01:39:53;101561.81;;;6.06;100.00
32324;BME280;25666;44.350;9.222;2023-01-26T01:42:19;101563.75;;;5.87;100.00
32324;BME280;25666;44.350;9.222;2023-01-26T01:44:45;101559.06;;;5.87;100.00
32324;BME280;25666;44.350;9.222;2023-01-26T01:47:31;101552.31;;;5.93;100.00
32324;BME280;25666;44.350;9.222;2023-01-26T01:49:57;101547.31;;;5.96;100.00
32324;BME280;25666;44.350;9.222;2023-01-26T01:52:26;101551.94;;;5.81;100.00
32324;BME280;25666;44.350;9.222;2023-01-26T01:55:04;101544.47;;;5.82;100.00
32324;BME280;25666;44.350;9.222;2023-01-26T01:58:07;101546.66;;;5.43;100.00
32324;BME280;25666;44.350;9.222;2023-01-26T02:00:26;101549.28;;;5.34;100.00
32324;BME280;25666;44.350;9.222;2023-01-26T02:06:59;101530.47;;;5.36;100.00
32324;BME280;25666;44.350;9.222;2023-01-26T02:09:30;101527.72;;;5.55;100.00
32324;BME280;25666;44.350;9.222;2023-01-26T02:12:19;101519.66;;;5.58;100.00
32324;BME280;25666;44.350;9.222;2023-01-26T02:14:47;101521.53;;;5.44;100.00
32324;BME280;25666;44.350;9.222;2023-01-26T02:17:13;101518.44;;;5.27;100.00
32324;BME280;25666;44.350;9.222;2023-01-26T02:20:04;101520.38;;;5.26;100.00
32324;BME280;25666;44.350;9.222;2023-01-26T02:22:44;101521.66;;;5.34;100.00
32324;BME280;25666;44.350;9.222;2023-01-26T02:25:37;101526.28;;;5.20;100.00
32324;BME280;25666;44.350;9.222;2023-01-26T02:28:04;101514.22;;;5.34;100.00
32324;BME280;25666;44.350;9.222;2023-01-26T02:30:31;101509.16;;;5.42;100.00
32324;BME280;25666;44.350;9.222;2023-01-26T02:32:56;101502.84;;;5.17;100.00
32324;BME280;25666;44.350;9.222;2023-01-26T02:35:22;101491.75;;;5.22;100.00
32324;BME280;25666;44.350;9.222;2023-01-26T02:37:47;101491.75;;;5.22;100.00
32324;BME280;25666;44.350;9.222;2023-01-26T02:42:54;101487.25;;;5.26;100.00
32324;BME280;25666;44.350;9.222;2023-01-26T02:45:20;101490.69;;;5.18;100.00
32324;BME280;25666;44.350;9.222;2023-01-26T02:47:46;101493.31;;;5.28;100.00
32324;BME280;25666;44.350;9.222;2023-01-26T02:50:12;101488.75;;;5.19;100.00
32324;BME280;25666;44.350;9.222;2023-01-26T02:52:38;101485.56;;;5.30;100.00
32324;BME280;25666;44.350;9.222;2023-01-26T02:55:08;101483.75;;;5.21;100.00
32324;BME280;25666;44.350;9.222;2023-01-26T02:57:58;101476.81;;;5.23;100.00
32324;BME280;25666;44.350;9.222;2023-01-26T03:00:27;101476.00;;;5.04;100.00
32324;BME280;25666;44.350;9.222;2023-01-26T03:02:56;101467.28;;;5.16;100.00
32324;BME280;25666;44.350;9.222;2023-01-26T03:05:23;101462.81;;;5.20;100.00
32324;BME280;25666;44.350;9.222;2023-01-26T03:07:50;101458.03;;;5.25;100.00
32324;BME280;25666;44.350;9.222;2023-01-26T03:10:18;101458.63;;;5.22;100.00
32324;BME280;25666;44.350;9.222;2023-01-26T03:12:44;101445.84;;;5.26;100.00
32324;BME280;25666;44.350;9.222;2023-01-26T03:15:09;101449.97;;;5.10;100.00
32324;BME280;25666;44.350;9.222;2023-01-26T03:18:04;101448.72;;;4.79;100.00
32324;BME280;25666;44.350;9.222;2023-01-26T03:20:49;101448.09;;;5.06;100.00
32324;BME280;25666;44.350;9.222;2023-01-26T03:23:33;101433.78;;;5.04;100.00
32324;BME280;25666;44.350;9.222;2023-01-26T03:26:17;101429.13;;;4.99;100.00
32324;BME280;25666;44.350;9.222;2023-01-26T03:29:01;101430.88;;;5.14;100.00
32324;BME280;25666;44.350;9.222;2023-01-26T03:31:26;101430.28;;;5.17;100.00
32324;BME280;25666;44.350;9.222;2023-01-26T03:33:52;101426.16;;;4.96;100.00
32324;BME280;25666;44.350;9.222;2023-01-26T03:36:18;101419.22;;;4.98;100.00
32324;BME280;25666;44.350;9.222;2023-01-26T03:38:43;101422.50;;;5.00;100.00
32324;BME280;25666;44.350;9.222;2023-01-26T03:41:09;101416.91;;;4.86;100.00
32324;BME280;25666;44.350;9.222;2023-01-26T03:43:53;101418.16;;;4.75;100.00
32324;BME280;25666;44.350;9.222;2023-01-26T03:46:37;101421.75;;;4.76;100.00
32324;BME280;25666;44.350;9.222;2023-01-26T03:49:21;101421.63;;;4.62;100.00
32324;BME280;25666;44.350;9.222;2023-01-26T03:52:05;101422.81;;;4.56;100.00
32324;BME280;25666;44.350;9.222;2023-01-26T03:54:49;101423.91;;;4.79;100.00
32324;BME280;25666;44.350;9.222;2023-01-26T03:57:34;101426.66;;;4.79;100.00
32324;BME280;25666;44.350;9.222;2023-01-26T03:59:59;101423.09;;;4.78;100.00
32324;BME280;25666;44.350;9.222;2023-01-26T04:02:25;101413.53;;;4.90;100.00
32324;BME280;25666;44.350;9.222;2023-01-26T04:05:10;101410.31;;;4.82;100.00
32324;BME280;25666;44.350;9.222;2023-01-26T04:08:02;101413.03;;;4.88;100.00
32324;BME280;25666;44.350;9.222;2023-01-26T04:10:47;101409.50;;;4.63;100.00
32324;BME280;25666;44.350;9.222;2023-01-26T04:13:12;101408.53;;;4.73;100.00
32324;BME280;25666;44.350;9.222;2023-01-26T04:16:03;101400.06;;;4.88;100.00
32324;BME280;25666;44.350;9.222;2023-01-26T04:18:47;101393.03;;;4.96;100.00
32324;BME280;25666;44.350;9.222;2023-01-26T04:21:32;101393.59;;;4.98;100.00
32324;BME280;25666;44.350;9.222;2023-01-26T04:24:02;101393.97;;;4.91;100.00
32324;BME280;25666;44.350;9.222;2023-01-26T04:26:34;101387.75;;;4.80;100.00
32324;BME280;25666;44.350;9.222;2023-01-26T04:29:06;101384.38;;;4.65;100.00
32324;BME280;25666;44.350;9.222;2023-01-26T04:31:33;101378.75;;;4.51;100.00
32324;BME280;25666;44.350;9.222;2023-01-26T04:33:59;101377.63;;;4.52;100.00
32324;BME280;25666;44.350;9.222;2023-01-26T04:36:26;101378.69;;;4.09;100.00
32324;BME280;25666;44.350;9.222;2023-01-26T04:38:52;101377.66;;;4.28;100.00
32324;BME280;25666;44.350;9.222;2023-01-26T04:41:20;101372.63;;;4.54;100.00
32324;BME280;25666;44.350;9.222;2023-01-26T04:43:52;101366.31;;;4.54;100.00
32324;BME280;25666;44.350;9.222;2023-01-26T04:46:17;101364.78;;;4.66;100.00
32324;BME280;25666;44.350;9.222;2023-01-26T04:48:42;101364.66;;;4.53;100.00
32324;BME280;25666;44.350;9.222;2023-01-26T04:51:16;101364.13;;;4.32;100.00
32324;BME280;25666;44.350;9.222;2023-01-26T04:53:42;101361.25;;;4.61;100.00
32324;BME280;25666;44.350;9.222;2023-01-26T04:56:17;101362.66;;;4.58;100.00
32324;BME280;25666;44.350;9.222;2023-01-26T04:58:44;101360.47;;;4.60;100.00
32324;BME280;25666;44.350;9.222;2023-01-26T05:01:10;101352.69;;;4.62;100.00
32324;BME280;25666;44.350;9.222;2023-01-26T05:03:35;101343.53;;;4.67;100.00
32324;BME280;25666;44.350;9.222;2023-01-26T05:06:01;101344.28;;;4.72;100.00
32324;BME280;25666;44.350;9.222;2023-01-26T05:08:27;101341.59;;;4.67;100.00
32324;BME280;25666;44.350;9.222;2023-01-26T05:10:53;101342.31;;;4.54;100.00
32324;BME280;25666;44.350;9.222;2023-01-26T05:13:39;101345.25;;;4.63;100.00
32324;BME280;25666;44.350;9.222;2023-01-26T05:16:34;101344.16;;;4.40;100.00
32324;BME280;25666;44.350;9.222;2023-01-26T05:19:00;101353.09;;;4.32;100.00
32324;BME280;25666;44.350;9.222;2023-01-26T05:21:49;101346.19;;;4.53;100.00
32324;BME280;25666;44.350;9.222;2023-01-26T05:24:15;101343.69;;;4.57;100.00
32324;BME280;25666;44.350;9.222;2023-01-26T05:27:01;101348.22;;;4.48;100.00
32324;BME280;25666;44.350;9.222;2023-01-26T05:29:49;101349.31;;;4.47;100.00
32324;BME280;25666;44.350;9.222;2023-01-26T05:32:15;101352.66;;;4.20;100.00
32324;BME280;25666;44.350;9.222;2023-01-26T05:34:41;101348.78;;;4.21;100.00
32324;BME280;25666;44.350;9.222;2023-01-26T05:37:07;101352.84;;;4.05;100.00
32324;BME280;25666;44.350;9.222;2023-01-26T05:39:33;101354.56;;;3.72;100.00
32324;BME280;25666;44.350;9.222;2023-01-26T05:42:00;101355.94;;;3.98;100.00
32324;BME280;25666;44.350;9.222;2023-01-26T05:44:54;101350.63;;;4.07;100.00
32324;BME280;25666;44.350;9.222;2023-01-26T05:47:21;101352.38;;;4.21;100.00
32324;BME280;25666;44.350;9.222;2023-01-26T05:49:48;101348.97;;;4.29;100.00
32324;BME280;25666;44.350;9.222;2023-01-26T05:52:19;101351.97;;;4.09;100.00
32324;BME280;25666;44.350;9.222;2023-01-26T05:54:45;101352.72;;;4.15;100.00
32324;BME280;25666;44.350;9.222;2023-01-26T05:57:12;101345.22;;;4.20;100.00
32324;BME280;25666;44.350;9.222;2023-01-26T05:59:43;101350.09;;;4.28;100.00
32324;BME280;25666;44.350;9.222;2023-01-26T06:02:10;101347.94;;;4.25;100.00
32324;BME280;25666;44.350;9.222;2023-01-26T06:04:50;101349.91;;;4.20;100.00
32324;BME280;25666;44.350;9.222;2023-01-26T06:07:16;101357.22;;;4.29;100.00
32324;BME280;25666;44.350;9.222;2023-01-26T06:09:53;101353.72;;;4.24;100.00
32324;BME280;25666;44.350;9.222;2023-01-26T06:12:51;101358.59;;;4.08;100.00
32324;BME280;25666;44.350;9.222;2023-01-26T06:15:35;101361.41;;;4.27;100.00
32324;BME280;25666;44.350;9.222;2023-01-26T06:18:01;101357.97;;;4.16;100.00
32324;BME280;25666;44.350;9.222;2023-01-26T06:20:27;101348.97;;;4.29;100.00
32324;BME280;25666;44.350;9.222;2023-01-26T06:22:59;101351.28;;;4.22;100.00
32324;BME280;25666;44.350;9.222;2023-01-26T06:25:27;101351.19;;;4.27;100.00
32324;BME280;25666;44.350;9.222;2023-01-26T06:27:56;101357.31;;;4.24;100.00
32324;BME280;25666;44.350;9.222;2023-01-26T06:30:24;101356.78;;;4.22;100.00
32324;BME280;25666;44.350;9.222;2023-01-26T06:32:51;101349.63;;;4.21;100.00
32324;BME280;25666;44.350;9.222;2023-01-26T06:35:17;101341.47;;;4.11;100.00
32324;BME280;25666;44.350;9.222;2023-01-26T06:37:43;101335.50;;;4.28;100.00
32324;BME280;25666;44.350;9.222;2023-01-26T06:40:10;101334.16;;;4.25;100.00
32324;BME280;25666;44.350;9.222;2023-01-26T06:42:36;101343.59;;;4.19;100.00
32324;BME280;25666;44.350;9.222;2023-01-26T06:45:01;101331.78;;;4.38;100.00
32324;BME280;25666;44.350;9.222;2023-01-26T06:47:27;101326.31;;;4.56;100.00
32324;BME280;25666;44.350;9.222;2023-01-26T06:49:52;101326.75;;;4.45;100.00
32324;BME280;25666;44.350;9.222;2023-01-26T06:52:25;101333.53;;;4.52;100.00
32324;BME280;25666;44.350;9.222;2023-01-26T06:54:57;101335.56;;;4.65;100.00
32324;BME280;25666;44.350;9.222;2023-01-26T06:57:44;101326.19;;;4.66;100.00
32324;BME280;25666;44.350;9.222;2023-01-26T07:00:30;101327.38;;;4.79;100.00
32324;BME280;25666;44.350;9.222;2023-01-26T07:03:12;101326.03;;;4.95;100.00
32324;BME280;25666;44.350;9.222;2023-01-26T07:05:38;101326.38;;;4.70;100.00
32324;BME280;25666;44.350;9.222;2023-01-26T07:08:03;101329.00;;;4.80;100.00
32324;BME280;25666;44.350;9.222;2023-01-26T07:10:31;101321.47;;;4.67;100.00
32324;BME280;25666;44.350;9.222;2023-01-26T07:12:57;101324.41;;;4.75;100.00
32324;BME280;25666;44.350;9.222;2023-01-26T07:15:22;101329.00;;;4.61;100.00
32324;BME280;25666;44.350;9.222;2023-01-26T07:17:48;101315.34;;;4.70;100.00
32324;BME280;25666;44.350;9.222;2023-01-26T07:20:13;101323.66;;;4.89;100.00
32324;BME280;25666;44.350;9.222;2023-01-26T07:22:39;101317.38;;;5.02;100.00
32324;BME280;25666;44.350;9.222;2023-01-26T07:25:04;101319.16;;;5.11;100.00
32324;BME280;25666;44.350;9.222;2023-01-26T07:27:30;101314.22;;;5.08;100.00
32324;BME280;25666;44.350;9.222;2023-01-26T07:29:55;101310.88;;;5.11;100.00
32324;BME280;25666;44.350;9.222;2023-01-26T07:32:21;101308.06;;;5.16;100.00
32324;BME280;25666;44.350;9.222;2023-01-26T07:34:46;101312.66;;;5.21;100.00
32324;BME280;25666;44.350;9.222;2023-01-26T07:37:13;101313.25;;;5.18;100.00
32324;BME280;25666;44.350;9.222;2023-01-26T07:39:38;101313.00;;;5.33;100.00
32324;BME280;25666;44.350;9.222;2023-01-26T07:42:04;101313.94;;;5.42;100.00
32324;BME280;25666;44.350;9.222;2023-01-26T07:44:44;101306.41;;;5.48;100.00
32324;BME280;25666;44.350;9.222;2023-01-26T07:47:10;101303.69;;;5.61;100.00
32324;BME280;25666;44.350;9.222;2023-01-26T07:49:36;101311.06;;;5.66;100.00
32324;BME280;25666;44.350;9.222;2023-01-26T07:52:02;101299.03;;;5.89;100.00
32324;BME280;25666;44.350;9.222;2023-01-26T07:54:28;101300.00;;;5.98;100.00
32324;BME280;25666;44.350;9.222;2023-01-26T07:56:54;101301.81;;;6.03;100.00
32324;BME280;25666;44.350;9.222;2023-01-26T07:59:20;101298.56;;;6.01;100.00
32324;BME280;25666;44.350;9.222;2023-01-26T08:01:48;101287.81;;;6.26;100.00
32324;BME280;25666;44.350;9.222;2023-01-26T08:04:14;101296.41;;;6.38;100.00
32324;BME280;25666;44.350;9.222;2023-01-26T08:06:39;101290.00;;;6.52;100.00
32324;BME280;25666;44.350;9.222;2023-01-26T08:09:04;101289.09;;;6.56;100.00
32324;BME280;25666;44.350;9.222;2023-01-26T08:17:06;101305.75;;;6.65;100.00
32324;BME280;25666;44.350;9.222;2023-01-26T08:19:32;101299.00;;;6.71;100.00
32324;BME280;25666;44.350;9.222;2023-01-26T08:21:58;101295.63;;;6.96;100.00
32324;BME280;25666;44.350;9.222;2023-01-26T08:24:23;101294.31;;;6.93;100.00
32324;BME280;25666;44.350;9.222;2023-01-26T08:26:50;101299.34;;;6.91;100.00
32324;BME280;25666;44.350;9.222;2023-01-26T08:29:16;101302.03;;;6.83;100.00
32324;BME280;25666;44.350;9.222;2023-01-26T08:31:45;101298.72;;;6.94;100.00
32324;BME280;25666;44.350;9.222;2023-01-26T08:34:11;101299.34;;;6.91;100.00
32324;BME280;25666;44.350;9.222;2023-01-26T08:36:38;101298.84;;;7.12;100.00
32324;BME280;25666;44.350;9.222;2023-01-26T08:39:04;101297.50;;;7.23;100.00
32324;BME280;25666;44.350;9.222;2023-01-26T08:41:29;101293.22;;;7.39;100.00
32324;BME280;25666;44.350;9.222;2023-01-26T08:43:55;101296.63;;;7.36;100.00
32324;BME280;25666;44.350;9.222;2023-01-26T08:46:26;101292.84;;;7.32;100.00
32324;BME280;25666;44.350;9.222;2023-01-26T08:48:56;101297.72;;;7.57;100.00
32324;BME280;25666;44.350;9.222;2023-01-26T09:08:57;101296.03;;;8.09;100.00
32324;BME280;25666;44.350;9.222;2023-01-26T09:11:23;101295.19;;;8.08;100.00
32324;BME280;25666;44.350;9.222;2023-01-26T09:13:50;101280.56;;;8.17;98.73
32324;BME280;25666;44.350;9.222;2023-01-26T09:16:22;101281.38;;;8.17;100.00
32324;BME280;25666;44.350;9.222;2023-01-26T09:18:49;101281.28;;;8.31;93.38
32324;BME280;25666;44.350;9.222;2023-01-26T09:21:15;101283.69;;;8.24;100.00
32324;BME280;25666;44.350;9.222;2023-01-26T09:23:44;101272.47;;;8.29;100.00
32324;BME280;25666;44.350;9.222;2023-01-26T09:26:10;101282.44;;;8.38;91.15
32324;BME280;25666;44.350;9.222;2023-01-26T09:31:18;101267.31;;;8.61;80.77
32324;BME280;25666;44.350;9.222;2023-01-26T09:33:43;101270.75;;;8.76;77.65
32324;BME280;25666;44.350;9.222;2023-01-26T09:36:10;101268.47;;;8.78;76.84
32324;BME280;25666;44.350;9.222;2023-01-26T09:38:36;101273.22;;;8.86;80.93
32324;BME280;25666;44.350;9.222;2023-01-26T09:43:50;101271.75;;;8.80;88.36
32324;BME280;25666;44.350;9.222;2023-01-26T09:51:52;101282.69;;;8.85;91.55
32324;BME280;25666;44.350;9.222;2023-01-26T09:54:37;101283.66;;;8.97;84.32
32324;BME280;25666;44.350;9.222;2023-01-26T09:57:11;101277.47;;;9.09;79.90
32324;BME280;25666;44.350;9.222;2023-01-26T10:04:52;101263.09;;;9.07;82.18
32324;BME280;25666;44.350;9.222;2023-01-26T10:07:21;101263.25;;;9.10;82.18
32324;BME280;25666;44.350;9.222;2023-01-26T10:09:50;101260.81;;;9.18;82.28
32324;BME280;25666;44.350;9.222;2023-01-26T10:12:23;101261.47;;;9.14;84.96
32324;BME280;25666;44.350;9.222;2023-01-26T10:15:21;101257.34;;;9.12;88.58
32324;BME280;25666;44.350;9.222;2023-01-26T10:17:51;101257.22;;;9.17;82.39
32324;BME280;25666;44.350;9.222;2023-01-26T10:20:41;101252.28;;;9.31;76.38
32324;BME280;25666;44.350;9.222;2023-01-26T10:23:15;101249.81;;;9.38;72.12
32324;BME280;25666;44.350;9.222;2023-01-26T10:25:42;101238.50;;;9.43;79.07
32324;BME280;25666;44.350;9.222;2023-01-26T10:28:15;101236.91;;;9.42;78.31
32324;BME280;25666;44.350;9.222;2023-01-26T10:30:42;101236.72;;;9.47;77.89
32324;BME280;25666;44.350;9.222;2023-01-26T10:33:21;101228.38;;;9.47;75.37
32324;BME280;25666;44.350;9.222;2023-01-26T10:35:48;101226.75;;;9.55;72.00
32324;BME280;25666;44.350;9.222;2023-01-26T10:40:59;101228.00;;;9.66;72.22
32324;BME280;25666;44.350;9.222;2023-01-26T10:43:25;101209.00;;;9.68;70.64
32324;BME280;25666;44.350;9.222;2023-01-26T10:45:51;101207.41;;;9.67;73.53
32324;BME280;25666;44.350;9.222;2023-01-26T10:48:19;101215.22;;;9.74;75.14
32324;BME280;25666;44.350;9.222;2023-01-26T10:50:46;101205.56;;;9.80;76.68
32324;BME280;25666;44.350;9.222;2023-01-26T10:53:24;101192.28;;;9.85;81.97
32324;BME280;25666;44.350;9.222;2023-01-26T10:55:58;101193.03;;;9.94;88.45
32324;BME280;25666;44.350;9.222;2023-01-26T10:58:46;101187.94;;;9.96;84.22
32324;BME280;25666;44.350;9.222;2023-01-26T11:01:15;101188.09;;;10.00;80.73
32324;BME280;25666;44.350;9.222;2023-01-26T11:04:03;101178.75;;;10.04;76.10
32324;BME280;25666;44.350;9.222;2023-01-26T11:06:29;101176.78;;;10.05;73.78
32324;BME280;25666;44.350;9.222;2023-01-26T11:09:18;101171.56;;;10.03;74.64
32324;BME280;25666;44.350;9.222;2023-01-26T11:11:58;101165.53;;;10.01;81.63
32324;BME280;25666;44.350;9.222;2023-01-26T11:14:26;101161.53;;;10.11;77.63
32324;BME280;25666;44.350;9.222;2023-01-26T11:17:08;101151.09;;;10.08;81.63
32324;BME280;25666;44.350;9.222;2023-01-26T11:20:07;101156.81;;;10.03;89.94
32324;BME280;25666;44.350;9.222;2023-01-26T11:23:14;101148.44;;;10.11;84.87
32324;BME280;25666;44.350;9.222;2023-01-26T11:29:37;101136.69;;;10.06;78.72
32324;BME280;25666;44.350;9.222;2023-01-26T11:32:20;101134.53;;;10.11;75.13
32324;BME280;25666;44.350;9.222;2023-01-26T11:37:45;101124.00;;;10.26;74.79
32324;BME280;25666;44.350;9.222;2023-01-26T11:43:21;101112.72;;;10.43;75.40
32324;BME280;25666;44.350;9.222;2023-01-26T11:46:00;101114.56;;;10.39;81.96
32324;BME280;25666;44.350;9.222;2023-01-26T11:48:47;101111.63;;;10.35;87.94
32324;BME280;25666;44.350;9.222;2023-01-26T11:51:40;101110.28;;;10.41;85.88
32324;BME280;25666;44.350;9.222;2023-01-26T11:57:11;101110.31;;;10.53;83.21
32324;BME280;25666;44.350;9.222;2023-01-26T11:59:53;101099.19;;;10.53;84.40
32324;BME280;25666;44.350;9.222;2023-01-26T12:02:32;101101.16;;;10.53;82.29
32324;BME280;25666;44.350;9.222;2023-01-26T12:05:21;101087.88;;;10.58;80.92
32324;BME280;25666;44.350;9.222;2023-01-26T12:08:34;101086.69;;;10.59;79.30
32324;BME280;25666;44.350;9.222;2023-01-26T12:15:55;101082.16;;;10.55;81.38
32324;BME280;25666;44.350;9.222;2023-01-26T12:18:38;101065.97;;;10.69;77.11
32324;BME280;25666;44.350;9.222;2023-01-26T12:21:09;101062.25;;;10.65;77.32
32324;BME280;25666;44.350;9.222;2023-01-26T12:23:52;101060.94;;;10.62;75.43
32324;BME280;25666;44.350;9.222;2023-01-26T12:26:23;101056.91;;;10.60;77.22
32324;BME280;25666;44.350;9.222;2023-01-26T12:29:16;101053.78;;;10.61;77.52
32324;BME280;25666;44.350;9.222;2023-01-26T12:34:29;101044.63;;;10.61;76.42
32324;BME280;25666;44.350;9.222;2023-01-26T12:37:08;101042.16;;;10.59;73.93
32324;BME280;25666;44.350;9.222;2023-01-26T12:39:45;101034.16;;;10.58;73.13
32324;BME280;25666;44.350;9.222;2023-01-26T12:42:40;101036.25;;;10.61;72.34
32324;BME280;25666;44.350;9.222;2023-01-26T12:45:14;101029.41;;;10.58;73.55
32324;BME280;25666;44.350;9.222;2023-01-26T12:47:54;101028.72;;;10.61;72.27
32324;BME280;25666;44.350;9.222;2023-01-26T12:50:38;101017.25;;;10.63;71.17
32324;BME280;25666;44.350;9.222;2023-01-26T12:55:57;101002.59;;;10.54;73.69
32324;BME280;25666;44.350;9.222;2023-01-26T12:58:32;101001.81;;;10.65;71.97
32324;BME280;25666;44.350;9.222;2023-01-26T13:01:06;100989.97;;;10.68;71.03
32324;BME280;25666;44.350;9.222;2023-01-26T13:03:44;100992.19;;;10.63;71.08
32324;BME280;25666;44.350;9.222;2023-01-26T13:14:37;100966.81;;;10.64;67.97
32324;BME280;25666;44.350;9.222;2023-01-26T13:19:53;100964.22;;;10.59;82.99
32324;BME280;25666;44.350;9.222;2023-01-26T13:33:22;100948.38;;;11.08;54.84
32324;BME280;25666;44.350;9.222;2023-01-26T13:35:50;100940.47;;;11.10;54.24
32324;BME280;25666;44.350;9.222;2023-01-26T13:38:39;100938.38;;;11.07;53.58
32324;BME280;25666;44.350;9.222;2023-01-26T13:41:18;100934.78;;;11.07;53.78
32324;BME280;25666;44.350;9.222;2023-01-26T13:46:42;100939.66;;;10.98;56.01
32324;BME280;25666;44.350;9.222;2023-01-26T13:49:39;100931.69;;;10.96;58.18
32324;BME280;25666;44.350;9.222;2023-01-26T13:52:31;100930.50;;;11.09;57.17
32324;BME280;25666;44.350;9.222;2023-01-26T13:54:57;100936.19;;;11.13;60.04
32324;BME280;25666;44.350;9.222;2023-01-26T13:57:28;100928.53;;;10.98;66.96
32324;BME280;25666;44.350;9.222;2023-01-26T13:59:56;100930.75;;;10.92;75.24
32324;BME280;25666;44.350;9.222;2023-01-26T14:04:52;100931.66;;;10.84;79.72
32324;BME280;25666;44.350;9.222;2023-01-26T14:07:23;100931.06;;;10.79;81.71
32324;BME280;25666;44.350;9.222;2023-01-26T14:09:51;100927.25;;;10.71;81.09
32324;BME280;25666;44.350;9.222;2023-01-26T14:12:27;100931.53;;;10.68;80.49
32324;BME280;25666;44.350;9.222;2023-01-26T14:15:04;100929.69;;;10.72;79.61
32324;BME280;25666;44.350;9.222;2023-01-26T14:17:45;100929.34;;;10.74;79.22
32324;BME280;25666;44.350;9.222;2023-01-26T14:20:26;100925.75;;;10.61;88.42
32324;BME280;25666;44.350;9.222;2023-01-26T14:25:34;100933.47;;;10.56;89.01
32324;BME280;25666;44.350;9.222;2023-01-26T14:28:00;100938.81;;;10.49;97.24
32324;BME280;25666;44.350;9.222;2023-01-26T14:30:31;100930.34;;;10.45;94.00
32324;BME280;25666;44.350;9.222;2023-01-26T14:33:03;100936.25;;;10.44;93.08
32324;BME280;25666;44.350;9.222;2023-01-26T14:35:29;100930.44;;;10.37;97.06
32324;BME280;25666;44.350;9.222;2023-01-26T14:40:42;100938.06;;;10.28;100.00
32324;BME280;25666;44.350;9.222;2023-01-26T14:43:09;100940.38;;;10.26;100.00
32324;BME280;25666;44.350;9.222;2023-01-26T14:45:36;100942.69;;;10.24;94.97
32324;BME280;25666;44.350;9.222;2023-01-26T14:48:06;100939.91;;;10.24;95.55
32324;BME280;25666;44.350;9.222;2023-01-26T14:50:36;100941.63;;;10.16;100.00
32324;BME280;25666;44.350;9.222;2023-01-26T14:53:03;100935.75;;;10.09;100.00
32324;BME280;25666;44.350;9.222;2023-01-26T14:55:33;100937.63;;;10.05;100.00
32324;BME280;25666;44.350;9.222;2023-01-26T14:58:02;100939.91;;;10.03;100.00
32324;BME280;25666;44.350;9.222;2023-01-26T15:00:35;100931.34;;;9.96;100.00